createdAt,value
2018-09-13T00:01:40.607Z,6.93
2018-09-13T00:04:09.975Z,8.20
2018-09-13T00:06:39.363Z,7.50
2018-09-13T00:09:09.429Z,7.93
2018-09-13T00:11:38.901Z,7.70
2018-09-13T00:14:08.260Z,7.50
2018-09-13T00:16:37.634Z,7.57
2018-09-13T00:19:06.997Z,7.10
2018-09-13T00:21:36.356Z,8.70
2018-09-13T00:24:05.743Z,8.73
2018-09-13T00:26:35.297Z,8.00
2018-09-13T00:29:05.100Z,8.07
2018-09-13T00:31:34.451Z,9.90
2018-09-13T00:34:03.811Z,9.87
2018-09-13T00:36:33.199Z,8.60
2018-09-13T00:39:02.581Z,10.13
2018-09-13T00:41:31.942Z,9.90
2018-09-13T00:44:01.384Z,9.23
2018-09-13T00:46:30.761Z,9.90
2018-09-13T00:49:00.130Z,9.80
2018-09-13T00:51:29.503Z,9.23
2018-09-13T00:53:58.900Z,9.63
2018-09-13T00:56:28.453Z,10.53
2018-09-13T00:58:57.897Z,10.90
2018-09-13T01:01:27.218Z,9.60
2018-09-13T01:03:56.605Z,8.60
2018-09-13T01:06:25.986Z,9.30
2018-09-13T01:08:55.433Z,9.53
2018-09-13T01:11:24.798Z,9.00
2018-09-13T01:13:54.162Z,11.10
2018-09-13T01:16:23.524Z,10.70
2018-09-13T01:18:52.969Z,9.77
2018-09-13T01:21:22.336Z,9.10
2018-09-13T01:23:51.691Z,8.30
2018-09-13T01:26:21.083Z,9.23
2018-09-13T01:28:50.459Z,8.60
2018-09-13T01:31:19.819Z,11.93
2018-09-13T01:33:49.215Z,11.43
2018-09-13T01:36:18.596Z,13.90
2018-09-13T01:38:47.956Z,13.50
2018-09-13T01:41:17.327Z,10.77
2018-09-13T01:43:46.740Z,11.37
2018-09-13T01:46:16.120Z,12.33
2018-09-13T01:48:45.488Z,11.73
2018-09-13T01:51:14.851Z,11.63
2018-09-13T01:53:44.259Z,11.40
2018-09-13T01:56:13.810Z,12.50
2018-09-13T01:58:43.221Z,10.87
2018-09-13T02:04:09.305Z,13.20
2018-09-13T02:06:38.552Z,12.07
2018-09-13T02:09:10.369Z,14.07
2018-09-13T02:11:39.658Z,12.23
2018-09-13T02:14:08.993Z,12.40
2018-09-13T02:16:38.356Z,14.53
2018-09-13T02:19:07.650Z,12.60
2018-09-13T02:21:36.915Z,12.80
2018-09-13T02:24:06.232Z,11.67
2018-09-13T02:26:35.746Z,11.30
2018-09-13T02:29:05.118Z,10.80
2018-09-13T02:31:34.417Z,11.40
2018-09-13T02:34:03.738Z,10.80
2018-09-13T02:36:33.009Z,10.20
2018-09-13T02:39:02.402Z,12.30
2018-09-13T02:41:31.670Z,11.80
2018-09-13T02:44:00.967Z,10.70
2018-09-13T02:46:31.284Z,9.97
2018-09-13T02:49:00.599Z,11.60
2018-09-13T02:51:29.893Z,11.70
2018-09-13T02:53:59.389Z,11.47
2018-09-13T02:56:29.956Z,10.70
2018-09-13T02:58:59.277Z,11.40
2018-09-13T03:01:28.526Z,10.60
2018-09-13T03:03:57.846Z,11.47
2018-09-13T03:06:27.129Z,10.90
2018-09-13T03:08:56.430Z,10.80
2018-09-13T03:11:25.689Z,10.80
2018-09-13T03:13:54.960Z,11.00
2018-09-13T03:16:24.229Z,11.23
2018-09-13T03:18:53.511Z,10.43
2018-09-13T03:21:22.771Z,11.70
2018-09-13T03:23:52.069Z,12.23
2018-09-13T03:26:21.358Z,11.37
2018-09-13T03:28:50.725Z,11.00
2018-09-13T03:31:20.000Z,11.97
2018-09-13T03:33:49.346Z,11.50
2018-09-13T03:36:18.629Z,11.77
2018-09-13T03:38:47.926Z,11.63
2018-09-13T03:41:17.269Z,10.37
2018-09-13T03:43:46.620Z,10.20
2018-09-13T03:46:15.885Z,10.30
2018-09-13T03:48:45.177Z,10.77
2018-09-13T03:51:14.447Z,11.83
2018-09-13T03:53:43.747Z,11.90
2018-09-13T03:56:13.022Z,12.33
2018-09-13T03:58:42.363Z,13.93
2018-09-13T04:01:11.622Z,12.40
2018-09-13T04:03:40.985Z,11.60
2018-09-13T04:06:10.269Z,12.70
2018-09-13T04:08:39.633Z,12.33
2018-09-13T04:11:08.919Z,12.60
2018-09-13T04:13:38.277Z,12.40
2018-09-13T04:16:07.552Z,13.40
2018-09-13T04:18:37.023Z,13.37
2018-09-13T04:21:06.218Z,12.23
2018-09-13T04:23:35.494Z,12.30
2018-09-13T04:26:04.911Z,13.73
2018-09-13T04:28:34.482Z,11.70
2018-09-13T04:31:03.741Z,12.33
2018-09-13T04:33:33.012Z,13.40
2018-09-13T04:36:02.246Z,12.67
2018-09-13T04:38:31.545Z,14.60
2018-09-13T04:41:00.821Z,14.57
2018-09-13T04:43:30.170Z,13.10
2018-09-13T04:45:59.461Z,14.30
2018-09-13T04:48:28.745Z,13.47
2018-09-13T04:50:58.066Z,13.17
2018-09-13T04:53:27.381Z,15.50
2018-09-13T04:55:56.875Z,13.60
2018-09-13T04:58:26.281Z,13.63
2018-09-13T05:00:55.575Z,13.27
2018-09-13T05:03:24.914Z,14.43
2018-09-13T05:05:54.241Z,13.97
2018-09-13T05:08:23.517Z,14.50
2018-09-13T05:10:52.857Z,13.93
2018-09-13T05:13:22.465Z,14.70
2018-09-13T05:15:51.780Z,16.10
2018-09-13T05:18:21.085Z,15.60
2018-09-13T05:20:50.415Z,13.43
2018-09-13T05:23:19.686Z,12.60
2018-09-13T05:25:50.162Z,14.80
2018-09-13T05:28:19.440Z,12.83
2018-09-13T05:30:48.777Z,13.47
2018-09-13T05:33:18.033Z,11.50
2018-09-13T05:35:47.729Z,12.40
2018-09-13T05:38:17.002Z,12.93
2018-09-13T05:40:46.306Z,13.30
2018-09-13T05:43:15.661Z,12.43
2018-09-13T05:45:45.046Z,11.40
2018-09-13T05:48:14.323Z,11.30
2018-09-13T05:50:43.649Z,12.10
2018-09-13T05:53:13.067Z,12.30
2018-09-13T05:55:42.404Z,12.17
2018-09-13T05:58:11.693Z,12.40
2018-09-13T06:00:40.979Z,13.00
2018-09-13T06:03:10.233Z,11.50
2018-09-13T06:05:39.552Z,13.00
2018-09-13T06:08:08.912Z,12.43
2018-09-13T06:10:38.220Z,13.70
2018-09-13T06:13:07.519Z,12.50
2018-09-13T06:15:37.901Z,12.20
2018-09-13T06:18:07.161Z,10.90
2018-09-13T06:20:36.493Z,11.47
2018-09-13T06:23:05.718Z,13.20
2018-09-13T06:25:34.989Z,12.10
2018-09-13T06:28:04.245Z,12.03
2018-09-13T06:30:33.559Z,12.33
2018-09-13T06:33:02.830Z,15.00
2018-09-13T06:35:32.113Z,13.63
2018-09-13T06:38:01.781Z,16.00
2018-09-13T06:40:31.115Z,15.13
2018-09-13T06:43:00.385Z,14.33
2018-09-13T06:45:30.029Z,12.90
2018-09-13T06:47:59.304Z,13.87
2018-09-13T06:50:28.613Z,14.60
2018-09-13T06:52:57.862Z,12.63
2018-09-13T06:55:27.161Z,12.63
2018-09-13T06:57:56.414Z,12.70
2018-09-13T07:00:25.739Z,12.93
2018-09-13T07:02:54.990Z,14.27
2018-09-13T07:05:24.914Z,13.87
2018-09-13T07:07:54.154Z,16.37
2018-09-13T07:10:23.476Z,16.20
2018-09-13T07:12:52.746Z,14.50
2018-09-13T07:15:22.050Z,15.80
2018-09-13T07:17:52.746Z,17.30
2018-09-13T07:20:23.291Z,15.83
2018-09-13T07:22:52.654Z,14.80
2018-09-13T07:25:21.973Z,14.90
2018-09-13T07:27:51.253Z,15.40
2018-09-13T07:30:20.563Z,16.53
2018-09-13T07:32:49.853Z,15.93
2018-09-13T07:35:19.193Z,16.70
2018-09-13T07:37:48.492Z,18.10
2018-09-13T07:40:17.777Z,16.20
2018-09-13T07:42:47.071Z,15.40
2018-09-13T07:45:16.414Z,15.17
2018-09-13T07:47:45.677Z,14.97
2018-09-13T07:50:14.965Z,17.90
2018-09-13T07:52:44.242Z,16.30
2018-09-13T07:55:13.565Z,15.53
2018-09-13T07:57:42.848Z,16.40
2018-09-13T08:00:12.159Z,16.80
2018-09-13T08:02:41.489Z,19.27
2018-09-13T08:05:10.867Z,16.33
2018-09-13T08:07:40.152Z,17.20
2018-09-13T08:10:09.482Z,17.50
2018-09-13T08:12:38.742Z,17.20
2018-09-13T08:15:08.053Z,19.20
2018-09-13T08:17:38.239Z,20.20
2018-09-13T08:20:07.534Z,15.50
2018-09-13T08:22:36.834Z,16.97
2018-09-13T08:25:06.116Z,17.20
2018-09-13T08:27:35.455Z,18.00
2018-09-13T08:30:04.816Z,16.17
2018-09-13T08:32:34.523Z,16.20
2018-09-13T08:35:03.969Z,16.20
2018-09-13T08:37:33.260Z,17.10
2018-09-13T08:40:02.661Z,18.10
2018-09-13T08:42:31.805Z,16.67
2018-09-13T08:45:01.165Z,18.80
2018-09-13T08:47:30.466Z,19.00
2018-09-13T08:49:59.859Z,17.90
2018-09-13T08:52:29.130Z,19.20
2018-09-13T08:54:58.416Z,19.03
2018-09-13T08:57:27.714Z,19.63
2018-09-13T08:59:57.087Z,17.27
2018-09-13T09:02:26.395Z,17.37
2018-09-13T09:04:55.710Z,17.80
2018-09-13T09:07:25.006Z,16.53
2018-09-13T09:09:54.354Z,16.90
2018-09-13T09:12:23.677Z,16.40
2018-09-13T09:14:53.000Z,17.50
2018-09-13T09:17:22.280Z,17.70
2018-09-13T09:19:51.573Z,18.70
2018-09-13T09:22:20.911Z,18.40
2018-09-13T09:24:50.332Z,18.20
2018-09-13T09:27:19.721Z,16.37
2018-09-13T09:29:49.017Z,17.33
2018-09-13T09:32:18.378Z,17.10
2018-09-13T09:34:47.733Z,17.30
2018-09-13T09:37:17.045Z,18.47
2018-09-13T09:39:46.324Z,17.23
2018-09-13T09:42:15.668Z,17.27
2018-09-13T09:44:44.970Z,16.80
2018-09-13T09:47:14.390Z,17.80
2018-09-13T09:49:43.660Z,19.23
2018-09-13T09:52:13.014Z,17.50
2018-09-13T09:54:42.370Z,18.83
2018-09-13T09:57:11.837Z,19.30
2018-09-13T09:59:41.133Z,19.50
2018-09-13T10:02:12.510Z,16.77
2018-09-13T10:04:41.827Z,15.67
2018-09-13T10:07:11.184Z,16.90
2018-09-13T10:09:40.505Z,17.07
2018-09-13T10:12:10.156Z,16.50
2018-09-13T10:14:39.420Z,17.57
2018-09-13T10:17:13.916Z,17.27
2018-09-13T10:19:48.387Z,16.57
2018-09-13T10:22:22.856Z,17.60
2018-09-13T10:24:57.188Z,18.50
2018-09-13T10:27:31.618Z,17.23
2018-09-13T10:30:06.253Z,15.77
2018-09-13T10:32:40.772Z,14.80
2018-09-13T10:35:15.126Z,15.27
2018-09-13T10:37:49.649Z,15.33
2018-09-13T10:40:24.284Z,16.80
2018-09-13T10:42:58.709Z,14.87
2018-09-13T10:45:33.558Z,16.60
2018-09-13T10:48:08.227Z,13.30
2018-09-13T10:50:43.605Z,16.23
2018-09-13T10:53:20.138Z,16.60
2018-09-13T10:55:49.481Z,17.17
2018-09-13T10:58:18.820Z,15.00
2018-09-13T11:00:48.130Z,14.50
2018-09-13T11:03:17.431Z,13.83
2018-09-13T11:05:46.798Z,16.10
2018-09-13T11:08:16.116Z,16.40
2018-09-13T11:10:45.476Z,15.77
2018-09-13T11:13:24.330Z,17.50
2018-09-13T11:15:53.624Z,16.50
2018-09-13T11:18:22.952Z,15.70
2018-09-13T11:20:52.240Z,17.10
2018-09-13T11:23:21.554Z,16.00
2018-09-13T11:25:50.857Z,15.00
2018-09-13T11:28:20.177Z,16.80
2018-09-13T11:30:54.713Z,15.40
2018-09-13T11:33:24.006Z,15.17
2018-09-13T11:35:53.332Z,15.10
2018-09-13T11:38:22.621Z,15.23
2018-09-13T11:40:52.145Z,16.03
2018-09-13T11:43:21.229Z,16.90
2018-09-13T11:45:50.673Z,16.90
2018-09-13T11:48:20.077Z,16.83
2018-09-13T11:50:49.372Z,15.20
2018-09-13T11:53:18.721Z,17.53
2018-09-13T11:55:48.343Z,15.00
2018-09-13T11:58:17.680Z,13.27
2018-09-13T12:00:46.954Z,13.93
2018-09-13T12:03:16.285Z,13.97
2018-09-13T12:05:45.655Z,13.10
2018-09-13T12:08:14.920Z,14.40
2018-09-13T12:10:44.232Z,15.27
2018-09-13T12:13:13.549Z,13.43
2018-09-13T12:15:42.832Z,14.30
2018-09-13T12:18:12.196Z,13.97
2018-09-13T12:20:41.468Z,14.40
2018-09-13T12:23:10.749Z,13.63
2018-09-13T12:25:40.091Z,16.97
2018-09-13T12:28:09.372Z,14.27
2018-09-13T12:30:38.673Z,13.20
2018-09-13T12:33:08.030Z,15.53
2018-09-13T12:35:37.349Z,16.30
2018-09-13T12:38:06.815Z,13.03
2018-09-13T12:40:36.140Z,15.50
2018-09-13T12:43:05.401Z,16.47
2018-09-13T12:45:34.726Z,13.77
2018-09-13T12:48:03.987Z,14.70
2018-09-13T12:50:33.295Z,15.60
2018-09-13T12:53:02.561Z,16.60
2018-09-13T12:55:37.157Z,13.67
2018-09-13T12:58:06.560Z,13.60
2018-09-13T13:00:35.899Z,14.47
2018-09-13T13:03:05.172Z,13.80
2018-09-13T13:05:34.460Z,16.53
2018-09-13T13:08:03.767Z,13.33
2018-09-13T13:10:33.104Z,14.90
2018-09-13T13:13:02.416Z,14.60
2018-09-13T13:15:31.764Z,15.03
2018-09-13T13:18:01.035Z,12.90
2018-09-13T13:20:30.335Z,14.33
2018-09-13T13:22:59.721Z,14.73
2018-09-13T13:25:29.042Z,14.30
2018-09-13T13:27:58.793Z,14.30
2018-09-13T13:30:28.541Z,13.27
2018-09-13T13:32:57.836Z,13.00
2018-09-13T13:35:27.211Z,11.90
2018-09-13T13:37:56.570Z,12.93
2018-09-13T13:40:25.889Z,13.37
2018-09-13T13:42:55.205Z,15.67
2018-09-13T13:45:24.493Z,12.87
2018-09-13T13:47:53.845Z,14.00
2018-09-13T13:50:23.150Z,13.97
2018-09-13T13:52:52.405Z,13.57
2018-09-13T13:55:21.917Z,14.70
2018-09-13T13:57:51.201Z,13.97
2018-09-13T14:00:20.591Z,14.50
2018-09-13T14:02:49.889Z,15.00
2018-09-13T14:05:19.202Z,12.83
2018-09-13T14:07:48.549Z,14.83
2018-09-13T14:10:17.895Z,15.03
2018-09-13T14:12:47.237Z,13.53
2018-09-13T14:15:16.530Z,15.90
2018-09-13T14:17:45.826Z,13.63
2018-09-13T14:20:15.167Z,12.33
2018-09-13T14:22:44.568Z,15.60
2018-09-13T14:25:14.003Z,12.20
2018-09-13T14:27:43.330Z,13.00
2018-09-13T14:30:12.634Z,15.47
2018-09-13T14:32:41.942Z,15.23
2018-09-13T14:35:11.237Z,13.70
2018-09-13T14:37:40.532Z,14.40
2018-09-13T14:40:09.959Z,13.43
2018-09-13T14:42:39.170Z,14.50
2018-09-13T14:45:08.639Z,12.90
2018-09-13T14:47:37.998Z,12.80
2018-09-13T14:50:07.300Z,13.20
2018-09-13T14:52:36.670Z,12.23
2018-09-13T14:55:06.007Z,16.93
2018-09-13T14:57:35.323Z,13.20
2018-09-13T15:00:04.908Z,14.17
2018-09-13T15:02:34.193Z,14.23
2018-09-13T15:05:03.612Z,15.37
2018-09-13T15:07:32.905Z,11.90
2018-09-13T15:10:02.315Z,14.40
2018-09-13T15:12:31.578Z,15.17
2018-09-13T15:15:00.882Z,11.77
2018-09-13T15:17:30.213Z,13.83
2018-09-13T15:19:59.589Z,12.17
2018-09-13T15:22:28.878Z,12.73
2018-09-13T15:24:58.170Z,12.60
2018-09-13T15:27:27.489Z,12.47
2018-09-13T15:29:56.765Z,11.90
2018-09-13T15:32:26.554Z,11.93
2018-09-13T15:34:55.968Z,11.23
2018-09-13T15:37:25.233Z,8.87
2018-09-13T15:39:54.573Z,8.80
2018-09-13T15:42:23.876Z,10.00
2018-09-13T15:44:53.190Z,11.40
2018-09-13T15:47:22.450Z,9.40
2018-09-13T15:49:52.053Z,11.07
2018-09-13T15:52:21.310Z,10.80
2018-09-13T15:54:50.625Z,8.70
2018-09-13T15:57:19.885Z,9.27
2018-09-13T15:59:49.209Z,11.33
2018-09-13T16:02:18.610Z,10.70
2018-09-13T16:04:47.934Z,10.07
2018-09-13T16:07:17.273Z,9.40
2018-09-13T16:09:46.589Z,9.00
2018-09-13T16:12:15.915Z,9.70
2018-09-13T16:14:45.284Z,8.80
2018-09-13T16:17:14.579Z,9.40
2018-09-13T16:19:43.910Z,8.77
2018-09-13T16:22:13.192Z,8.80
2018-09-13T16:24:42.507Z,9.07
2018-09-13T16:27:11.787Z,9.20
2018-09-13T16:29:42.123Z,9.57
2018-09-13T16:32:11.477Z,9.53
2018-09-13T16:34:41.001Z,9.20
2018-09-13T16:37:12.039Z,8.93
2018-09-13T16:39:46.673Z,8.80
2018-09-13T16:42:21.091Z,9.00
2018-09-13T16:44:52.249Z,9.87
2018-09-13T16:47:29.813Z,8.97
2018-09-13T16:50:00.465Z,8.40
2018-09-13T16:52:30.648Z,9.20
2018-09-13T16:55:00.054Z,9.17
2018-09-13T16:57:29.365Z,8.97
2018-09-13T16:59:58.718Z,9.30
2018-09-13T17:02:27.997Z,8.73
2018-09-13T17:04:58.512Z,9.70
2018-09-13T17:07:27.817Z,8.70
2018-09-13T17:09:57.121Z,9.17
2018-09-13T17:12:26.429Z,8.07
2018-09-13T17:14:56.041Z,9.23
2018-09-13T17:17:25.335Z,8.77
2018-09-13T17:19:54.610Z,8.50
2018-09-13T17:22:23.931Z,8.37
2018-09-13T17:24:53.241Z,8.57
2018-09-13T17:27:22.549Z,8.57
2018-09-13T17:29:52.252Z,8.40
2018-09-13T17:32:21.940Z,9.10
2018-09-13T17:34:51.235Z,8.97
2018-09-13T17:37:20.520Z,8.47
2018-09-13T17:39:49.806Z,9.07
2018-09-13T17:42:19.097Z,9.13
2018-09-13T17:44:48.363Z,9.33
2018-09-13T17:47:17.670Z,7.80
2018-09-13T17:49:46.916Z,9.00
2018-09-13T17:52:16.213Z,8.90
2018-09-13T17:54:45.555Z,9.37
2018-09-13T17:57:14.870Z,7.80
2018-09-13T17:59:44.213Z,8.23
2018-09-13T18:02:13.530Z,8.63
2018-09-13T18:04:42.867Z,8.67
2018-09-13T18:07:12.607Z,8.77
2018-09-13T18:09:42.045Z,8.73
2018-09-13T18:12:11.772Z,8.60
2018-09-13T18:14:41.068Z,8.07
2018-09-13T18:17:10.482Z,8.03
2018-09-13T18:19:39.784Z,8.60
2018-09-13T18:22:09.073Z,8.70
2018-09-13T18:24:38.349Z,7.80
2018-09-13T18:27:07.881Z,8.53
2018-09-13T18:29:37.145Z,8.00
2018-09-13T18:32:06.474Z,8.80
2018-09-13T18:34:35.753Z,8.90
2018-09-13T18:37:05.103Z,9.30
2018-09-13T18:39:34.388Z,9.17
2018-09-13T18:42:04.122Z,10.00
2018-09-13T18:44:33.444Z,9.23
2018-09-13T18:47:03.151Z,9.70
2018-09-13T18:49:32.846Z,9.77
2018-09-13T18:52:02.168Z,8.50
2018-09-13T18:54:31.451Z,8.43
2018-09-13T18:57:00.773Z,9.40
2018-09-13T18:59:30.080Z,8.80
2018-09-13T19:01:59.382Z,8.20
2018-09-13T19:04:29.067Z,8.63
2018-09-13T19:06:58.376Z,8.50
2018-09-13T19:09:27.621Z,8.33
2018-09-13T19:11:56.917Z,8.00
2018-09-13T19:14:26.157Z,8.03
2018-09-13T19:16:55.433Z,8.57
2018-09-13T19:19:24.694Z,8.60
2018-09-13T19:21:53.984Z,7.83
2018-09-13T19:24:23.237Z,8.00
2018-09-13T19:26:52.547Z,8.30
2018-09-13T19:29:21.820Z,8.93
2018-09-13T19:31:51.184Z,8.50
2018-09-13T19:34:20.468Z,8.50
2018-09-13T19:36:49.798Z,8.70
2018-09-13T19:39:19.070Z,8.97
2018-09-13T19:41:48.451Z,9.40
2018-09-13T19:44:17.747Z,9.43
2018-09-13T19:46:47.110Z,10.60
2018-09-13T19:49:16.363Z,10.10
2018-09-13T19:51:45.644Z,8.70
2018-09-13T19:54:14.956Z,10.37
2018-09-13T19:56:44.383Z,9.30
2018-09-13T19:59:13.741Z,11.27
2018-09-13T20:01:43.018Z,10.17
2018-09-13T20:04:12.518Z,9.77
2018-09-13T20:06:42.289Z,10.23
2018-09-13T20:09:12.401Z,11.63
2018-09-13T20:11:41.715Z,8.93
2018-09-13T20:14:11.065Z,11.87
2018-09-13T20:16:40.355Z,11.20
2018-09-13T20:19:09.632Z,11.30
2018-09-13T20:21:38.917Z,12.10
2018-09-13T20:24:08.162Z,10.43
2018-09-13T20:26:37.504Z,11.00
2018-09-13T20:29:06.949Z,12.07
2018-09-13T20:31:36.165Z,12.50
2018-09-13T20:34:05.477Z,10.80
2018-09-13T20:36:34.850Z,11.43
2018-09-13T20:39:06.062Z,12.87
2018-09-13T20:41:35.372Z,12.20
2018-09-13T20:44:04.824Z,11.10
2018-09-13T20:46:34.453Z,11.77
2018-09-13T20:49:03.718Z,11.53
2018-09-13T20:51:33.024Z,11.67
2018-09-13T20:54:02.263Z,13.07
2018-09-13T20:56:31.689Z,10.87
2018-09-13T20:59:01.083Z,12.17
2018-09-13T21:01:30.472Z,11.30
2018-09-13T21:03:59.833Z,12.50
2018-09-13T21:06:29.174Z,11.80
2018-09-13T21:08:58.449Z,12.63
2018-09-13T21:11:27.759Z,10.90
2018-09-13T21:13:57.134Z,11.77
2018-09-13T21:16:26.416Z,10.77
2018-09-13T21:18:55.730Z,11.63
2018-09-13T21:21:24.996Z,10.23
2018-09-13T21:23:54.277Z,9.93
2018-09-13T21:26:23.570Z,9.50
2018-09-13T21:29:56.346Z,9.17
2018-09-13T21:32:26.088Z,9.20
2018-09-13T21:34:55.369Z,9.63
2018-09-13T21:37:24.683Z,9.30
2018-09-13T21:39:53.983Z,9.60
2018-09-13T21:42:24.008Z,10.17
2018-09-13T21:44:53.322Z,11.10
2018-09-13T21:47:22.687Z,10.03
2018-09-13T21:49:51.993Z,10.20
2018-09-13T21:52:21.344Z,10.07
2018-09-13T21:54:50.774Z,10.03
2018-09-13T21:57:20.126Z,11.80
2018-09-13T21:59:49.429Z,12.20
2018-09-13T22:02:18.850Z,11.67
2018-09-13T22:04:48.172Z,11.23
2018-09-13T22:07:17.498Z,11.20
2018-09-13T22:09:46.794Z,10.70
2018-09-13T22:12:16.120Z,12.37
2018-09-13T22:14:45.400Z,12.00
2018-09-13T22:17:14.711Z,11.60
2018-09-13T22:19:44.008Z,13.57
2018-09-13T22:22:13.342Z,13.53
2018-09-13T22:24:42.622Z,15.03
2018-09-13T22:27:11.941Z,15.93
2018-09-13T22:29:41.240Z,15.23
2018-09-13T22:32:10.545Z,14.13
2018-09-13T22:34:39.833Z,14.63
2018-09-13T22:37:09.150Z,15.60
2018-09-13T22:39:38.448Z,11.87
2018-09-13T22:42:07.930Z,13.17
2018-09-13T22:44:42.233Z,14.00
2018-09-13T22:47:12.292Z,14.40
2018-09-13T22:49:42.058Z,14.27
2018-09-13T22:52:11.401Z,13.27
2018-09-13T22:54:40.703Z,11.73
2018-09-13T22:57:10.046Z,13.60
2018-09-13T22:59:39.349Z,11.90
2018-09-13T23:02:08.677Z,13.77
2018-09-13T23:04:38.394Z,12.40
2018-09-13T23:07:07.734Z,12.10
2018-09-13T23:09:37.150Z,12.13
2018-09-13T23:12:06.494Z,11.20
2018-09-13T23:14:35.889Z,12.50
2018-09-13T23:17:05.233Z,12.13
2018-09-13T23:19:34.607Z,11.67
2018-09-13T23:22:04.324Z,11.50
2018-09-13T23:24:33.659Z,12.60
2018-09-13T23:27:02.976Z,12.70
2018-09-13T23:29:32.292Z,13.70
2018-09-13T23:32:01.557Z,12.67
2018-09-13T23:34:30.872Z,14.17
2018-09-13T23:37:00.164Z,14.00
2018-09-13T23:39:29.658Z,12.97
2018-09-13T23:41:58.805Z,13.47
2018-09-13T23:44:28.114Z,14.70
2018-09-13T23:46:57.413Z,14.40
2018-09-13T23:49:26.793Z,15.70
2018-09-13T23:51:56.036Z,15.30
2018-09-13T23:54:25.340Z,17.20
2018-09-13T23:56:54.604Z,16.70
2018-09-13T23:59:24.100Z,14.70
